sensor_id;sensor_type;location;lat;lon;timestamp;pressure;altitude;pressure_sealevel;temperature;humidity
7022;BME280;3552;42.664;23.406;2022-08-07T00:00:51;45763.94;;;-141.28;100.00
7022;BME280;3552;42.664;23.406;2022-08-07T00:03:18;45748.25;;;-141.28;100.00
7022;BME280;3552;42.664;23.406;2022-08-07T00:05:45;45728.66;;;-141.28;100.00
7022;BME280;3552;42.664;23.406;2022-08-07T00:08:14;45718.84;;;-141.28;100.00
7022;BME280;3552;42.664;23.406;2022-08-07T00:10:43;45703.19;;;-141.28;100.00
7022;BME280;3552;42.664;23.406;2022-08-07T00:13:11;45707.09;;;-141.28;100.00
7022;BME280;3552;42.664;23.406;2022-08-07T00:15:39;45703.19;;;-141.28;100.00
7022;BME280;3552;42.664;23.406;2022-08-07T00:18:06;45718.84;;;-141.28;100.00
7022;BME280;3552;42.664;23.406;2022-08-07T00:20:34;45716.91;;;-141.28;100.00
7022;BME280;3552;42.664;23.406;2022-08-07T00:23:02;45709.06;;;-141.28;100.00
7022;BME280;3552;42.664;23.406;2022-08-07T00:25:33;45701.22;;;-141.28;100.00
7022;BME280;3552;42.664;23.406;2022-08-07T00:28:00;45685.53;;;-141.28;100.00
7022;BME280;3552;42.664;23.406;2022-08-07T00:30:29;45697.28;;;-141.28;100.00
7022;BME280;3552;42.664;23.406;2022-08-07T00:32:57;45697.28;;;-141.28;100.00
7022;BME280;3552;42.664;23.406;2022-08-07T00:35:25;45697.28;;;-141.28;100.00
7022;BME280;3552;42.664;23.406;2022-08-07T00:37:53;45705.13;;;-141.28;100.00
7022;BME280;3552;42.664;23.406;2022-08-07T00:40:20;45697.28;;;-141.28;100.00
7022;BME280;3552;42.664;23.406;2022-08-07T00:42:50;45703.19;;;-141.28;100.00
7022;BME280;3552;42.664;23.406;2022-08-07T00:45:18;45709.06;;;-141.28;100.00
7022;BME280;3552;42.664;23.406;2022-08-07T00:47:46;45669.84;;;-141.28;100.00
7022;BME280;3552;42.664;23.406;2022-08-07T00:50:13;45632.63;;;-141.28;100.00
7022;BME280;3552;42.664;23.406;2022-08-07T00:52:41;45614.97;;;-141.28;100.00
7022;BME280;3552;42.664;23.406;2022-08-07T00:55:09;45583.63;;;-141.28;100.00
7022;BME280;3552;42.664;23.406;2022-08-07T00:57:36;45560.09;;;-141.28;100.00
7022;BME280;3552;42.664;23.406;2022-08-07T01:00:07;45562.06;;;-141.28;100.00
7022;BME280;3552;42.664;23.406;2022-08-07T01:02:34;45569.91;;;-141.28;100.00
7022;BME280;3552;42.664;23.406;2022-08-07T01:05:04;45587.53;;;-141.28;100.00
7022;BME280;3552;42.664;23.406;2022-08-07T01:07:32;45593.41;;;-141.28;100.00
7022;BME280;3552;42.664;23.406;2022-08-07T01:10:03;45595.38;;;-141.28;100.00
7022;BME280;3552;42.664;23.406;2022-08-07T01:12:30;45573.81;;;-141.28;100.00
7022;BME280;3552;42.664;23.406;2022-08-07T01:14:58;45556.16;;;-141.28;100.00
7022;BME280;3552;42.664;23.406;2022-08-07T01:17:29;45554.22;;;-141.28;100.00
7022;BME280;3552;42.664;23.406;2022-08-07T01:20:02;45556.16;;;-141.28;100.00
7022;BME280;3552;42.664;23.406;2022-08-07T01:22:31;45565.97;;;-141.28;100.00
7022;BME280;3552;42.664;23.406;2022-08-07T01:24:58;45565.97;;;-141.28;100.00
7022;BME280;3552;42.664;23.406;2022-08-07T01:27:27;45569.91;;;-141.28;100.00
7022;BME280;3552;42.664;23.406;2022-08-07T01:29:56;45577.72;;;-141.28;100.00
7022;BME280;3552;42.664;23.406;2022-08-07T01:32:24;45579.69;;;-141.28;100.00
7022;BME280;3552;42.664;23.406;2022-08-07T01:34:51;45583.63;;;-141.28;100.00
7022;BME280;3552;42.664;23.406;2022-08-07T01:37:19;45585.56;;;-141.28;100.00
7022;BME280;3552;42.664;23.406;2022-08-07T01:39:47;45583.63;;;-141.28;100.00
7022;BME280;3552;42.664;23.406;2022-08-07T01:42:17;45624.78;;;-141.28;100.00
7022;BME280;3552;42.664;23.406;2022-08-07T01:44:45;45599.28;;;-141.28;100.00
7022;BME280;3552;42.664;23.406;2022-08-07T01:47:13;45607.13;;;-141.28;100.00
7022;BME280;3552;42.664;23.406;2022-08-07T01:49:41;45599.28;;;-141.28;100.00
7022;BME280;3552;42.664;23.406;2022-08-07T01:52:08;45618.91;;;-141.28;100.00
7022;BME280;3552;42.664;23.406;2022-08-07T01:54:39;45601.25;;;-141.28;100.00
7022;BME280;3552;42.664;23.406;2022-08-07T01:57:13;45609.09;;;-141.28;100.00
7022;BME280;3552;42.664;23.406;2022-08-07T01:59:46;45618.91;;;-141.28;100.00
7022;BME280;3552;42.664;23.406;2022-08-07T02:02:19;45626.72;;;-141.28;100.00
7022;BME280;3552;42.664;23.406;2022-08-07T02:04:55;45642.41;;;-141.28;100.00
7022;BME280;3552;42.664;23.406;2022-08-07T02:07:28;45618.91;;;-141.28;100.00
7022;BME280;3552;42.664;23.406;2022-08-07T02:09:56;45607.13;;;-141.28;100.00
7022;BME280;3552;42.664;23.406;2022-08-07T02:12:27;45605.19;;;-141.28;100.00
7022;BME280;3552;42.664;23.406;2022-08-07T02:14:58;45587.53;;;-141.28;100.00
7022;BME280;3552;42.664;23.406;2022-08-07T02:17:27;45552.25;;;-141.28;100.00
7022;BME280;3552;42.664;23.406;2022-08-07T02:19:56;45507.19;;;-141.28;100.00
7022;BME280;3552;42.664;23.406;2022-08-07T02:22:26;45466.00;;;-141.28;100.00
7022;BME280;3552;42.664;23.406;2022-08-07T02:24:55;45415.06;;;-141.28;100.00
7022;BME280;3552;42.664;23.406;2022-08-07T02:27:25;45344.50;;;-141.28;100.00
7022;BME280;3552;42.664;23.406;2022-08-07T02:29:55;45301.38;;;-141.28;100.00
7022;BME280;3552;42.664;23.406;2022-08-07T02:32:25;45273.94;;;-141.28;100.00
7022;BME280;3552;42.664;23.406;2022-08-07T02:34:53;45258.25;;;-141.28;100.00
7022;BME280;3552;42.664;23.406;2022-08-07T02:37:22;45254.34;;;-141.28;100.00
7022;BME280;3552;42.664;23.406;2022-08-07T02:39:51;45297.47;;;-141.28;100.00
7022;BME280;3552;42.664;23.406;2022-08-07T02:42:19;45262.19;;;-141.28;100.00
7022;BME280;3552;42.664;23.406;2022-08-07T02:44:50;45270.03;;;-141.28;100.00
7022;BME280;3552;42.664;23.406;2022-08-07T02:47:18;45281.78;;;-141.28;100.00
7022;BME280;3552;42.664;23.406;2022-08-07T02:49:45;45326.84;;;-141.28;100.00
7022;BME280;3552;42.664;23.406;2022-08-07T02:52:16;45297.47;;;-141.28;100.00
7022;BME280;3552;42.664;23.406;2022-08-07T02:54:45;45295.50;;;-141.28;100.00
7022;BME280;3552;42.664;23.406;2022-08-07T02:57:16;45324.91;;;-141.28;100.00
7022;BME280;3552;42.664;23.406;2022-08-07T02:59:47;45332.75;;;-141.28;100.00
7022;BME280;3552;42.664;23.406;2022-08-07T03:02:17;45307.25;;;-141.28;100.00
7022;BME280;3552;42.664;23.406;2022-08-07T03:04:45;45305.31;;;-141.28;100.00
7022;BME280;3552;42.664;23.406;2022-08-07T03:07:15;45334.69;;;-141.28;100.00
7022;BME280;3552;42.664;23.406;2022-08-07T03:09:43;45383.69;;;-141.28;100.00
7022;BME280;3552;42.664;23.406;2022-08-07T03:12:11;45344.50;;;-141.28;100.00
7022;BME280;3552;42.664;23.406;2022-08-07T03:14:40;45336.66;;;-141.28;100.00
7022;BME280;3552;42.664;23.406;2022-08-07T03:17:08;45332.75;;;-141.28;100.00
7022;BME280;3552;42.664;23.406;2022-08-07T03:19:38;45313.13;;;-141.28;100.00
7022;BME280;3552;42.664;23.406;2022-08-07T03:22:05;45301.38;;;-141.28;100.00
7022;BME280;3552;42.664;23.406;2022-08-07T03:24:34;45332.75;;;-141.28;100.00
7022;BME280;3552;42.664;23.406;2022-08-07T03:27:03;45336.66;;;-141.28;100.00
7022;BME280;3552;42.664;23.406;2022-08-07T03:29:34;45332.75;;;-141.28;100.00
7022;BME280;3552;42.664;23.406;2022-08-07T03:32:05;45336.66;;;-141.28;100.00
7022;BME280;3552;42.664;23.406;2022-08-07T03:34:37;45309.22;;;-141.28;100.00
7022;BME280;3552;42.664;23.406;2022-08-07T03:37:07;45285.69;;;-141.28;100.00
7022;BME280;3552;42.664;23.406;2022-08-07T03:39:39;45283.75;;;-141.28;100.00
7022;BME280;3552;42.664;23.406;2022-08-07T03:42:08;45275.91;;;-141.28;100.00
7022;BME280;3552;42.664;23.406;2022-08-07T03:44:36;45273.94;;;-141.28;100.00
7022;BME280;3552;42.664;23.406;2022-08-07T03:47:05;45238.66;;;-141.28;100.00
7022;BME280;3552;42.664;23.406;2022-08-07T03:49:33;45223.00;;;-141.28;100.00
7022;BME280;3552;42.664;23.406;2022-08-07T03:52:06;45195.56;;;-141.28;100.00
7022;BME280;3552;42.664;23.406;2022-08-07T03:54:34;45144.59;;;-141.28;100.00
7022;BME280;3552;42.664;23.406;2022-08-07T03:57:03;45111.28;;;-141.28;100.00
7022;BME280;3552;42.664;23.406;2022-08-07T03:59:31;45117.16;;;-141.28;100.00
7022;BME280;3552;42.664;23.406;2022-08-07T04:01:59;45113.25;;;-141.28;100.00
7022;BME280;3552;42.664;23.406;2022-08-07T04:04:27;45103.44;;;-141.28;100.00
7022;BME280;3552;42.664;23.406;2022-08-07T04:06:56;45117.16;;;-141.28;100.00
7022;BME280;3552;42.664;23.406;2022-08-07T04:09:24;45130.88;;;-141.28;100.00
7022;BME280;3552;42.664;23.406;2022-08-07T04:11:54;45144.59;;;-141.28;100.00
7022;BME280;3552;42.664;23.406;2022-08-07T04:14:22;45168.13;;;-141.28;100.00
7022;BME280;3552;42.664;23.406;2022-08-07T04:16:50;45136.75;;;-141.28;100.00
7022;BME280;3552;42.664;23.406;2022-08-07T04:19:17;45140.69;;;-141.28;100.00
7022;BME280;3552;42.664;23.406;2022-08-07T04:21:45;45195.56;;;-141.28;100.00
7022;BME280;3552;42.664;23.406;2022-08-07T04:24:13;45258.25;;;-141.28;100.00
7022;BME280;3552;42.664;23.406;2022-08-07T04:26:42;45273.94;;;-141.28;100.00
7022;BME280;3552;42.664;23.406;2022-08-07T04:29:13;45293.53;;;-141.28;100.00
7022;BME280;3552;42.664;23.406;2022-08-07T04:31:40;45324.91;;;-141.28;100.00
7022;BME280;3552;42.664;23.406;2022-08-07T04:34:09;45291.59;;;-141.28;100.00
7022;BME280;3552;42.664;23.406;2022-08-07T04:36:36;45336.66;;;-141.28;100.00
7022;BME280;3552;42.664;23.406;2022-08-07T04:39:04;45371.94;;;-141.28;100.00
7022;BME280;3552;42.664;23.406;2022-08-07T04:41:31;45397.41;;;-141.28;100.00
7022;BME280;3552;42.664;23.406;2022-08-07T04:44:00;45401.34;;;-141.28;100.00
7022;BME280;3552;42.664;23.406;2022-08-07T04:46:34;45403.28;;;-141.28;100.00
7022;BME280;3552;42.664;23.406;2022-08-07T04:49:09;45364.09;;;-141.28;100.00
7022;BME280;3552;42.664;23.406;2022-08-07T04:51:52;45350.38;;;-141.28;100.00
7022;BME280;3552;42.664;23.406;2022-08-07T04:54:26;45324.91;;;-141.28;100.00
7022;BME280;3552;42.664;23.406;2022-08-07T04:57:02;45319.03;;;-141.28;100.00
7022;BME280;3552;42.664;23.406;2022-08-07T04:59:41;45336.66;;;-141.28;100.00
7022;BME280;3552;42.664;23.406;2022-08-07T05:02:13;45340.59;;;-141.28;100.00
7022;BME280;3552;42.664;23.406;2022-08-07T05:04:49;45332.75;;;-141.28;100.00
7022;BME280;3552;42.664;23.406;2022-08-07T05:07:24;45328.81;;;-141.28;100.00
7022;BME280;3552;42.664;23.406;2022-08-07T05:09:59;45309.22;;;-141.28;100.00
7022;BME280;3552;42.664;23.406;2022-08-07T05:12:34;45313.13;;;-141.28;100.00
7022;BME280;3552;42.664;23.406;2022-08-07T05:15:06;45307.25;;;-141.28;100.00
7022;BME280;3552;42.664;23.406;2022-08-07T05:17:48;45283.75;;;-141.28;100.00
7022;BME280;3552;42.664;23.406;2022-08-07T05:20:22;45309.22;;;-141.28;100.00
7022;BME280;3552;42.664;23.406;2022-08-07T05:22:54;45293.53;;;-141.28;100.00
7022;BME280;3552;42.664;23.406;2022-08-07T05:25:22;45270.03;;;-141.28;100.00
7022;BME280;3552;42.664;23.406;2022-08-07T05:27:52;45264.16;;;-141.28;100.00
7022;BME280;3552;42.664;23.406;2022-08-07T05:30:24;45285.69;;;-141.28;100.00
7022;BME280;3552;42.664;23.406;2022-08-07T05:32:54;45297.47;;;-141.28;100.00
7022;BME280;3552;42.664;23.406;2022-08-07T05:35:23;45328.81;;;-141.28;100.00
7022;BME280;3552;42.664;23.406;2022-08-07T05:37:56;45334.69;;;-141.28;100.00
7022;BME280;3552;42.664;23.406;2022-08-07T05:40:23;45326.84;;;-141.28;100.00
7022;BME280;3552;42.664;23.406;2022-08-07T05:42:51;45307.25;;;-141.28;100.00
7022;BME280;3552;42.664;23.406;2022-08-07T05:45:22;45352.34;;;-141.28;100.00
7022;BME280;3552;42.664;23.406;2022-08-07T05:47:53;45326.84;;;-141.28;100.00
7022;BME280;3552;42.664;23.406;2022-08-07T05:50:22;45356.25;;;-141.28;100.00
7022;BME280;3552;42.664;23.406;2022-08-07T05:52:49;45332.75;;;-141.28;100.00
7022;BME280;3552;42.664;23.406;2022-08-07T05:55:17;45336.66;;;-141.28;100.00
7022;BME280;3552;42.664;23.406;2022-08-07T05:57:46;45340.59;;;-141.28;100.00
7022;BME280;3552;42.664;23.406;2022-08-07T06:00:17;45336.66;;;-141.28;100.00
7022;BME280;3552;42.664;23.406;2022-08-07T06:02:49;45342.53;;;-141.28;100.00
7022;BME280;3552;42.664;23.406;2022-08-07T06:05:22;45368.03;;;-141.28;100.00
7022;BME280;3552;42.664;23.406;2022-08-07T06:07:53;45364.09;;;-141.28;100.00
7022;BME280;3552;42.664;23.406;2022-08-07T06:10:22;45379.78;;;-141.28;100.00
7022;BME280;3552;42.664;23.406;2022-08-07T06:12:50;45395.47;;;-141.28;100.00
7022;BME280;3552;42.664;23.406;2022-08-07T06:15:17;45422.91;;;-141.28;100.00
7022;BME280;3552;42.664;23.406;2022-08-07T06:17:50;45440.53;;;-141.28;100.00
7022;BME280;3552;42.664;23.406;2022-08-07T06:20:17;45497.38;;;-141.28;100.00
7022;BME280;3552;42.664;23.406;2022-08-07T06:22:51;45491.50;;;-141.28;100.00
7022;BME280;3552;42.664;23.406;2022-08-07T06:25:19;45471.91;;;-141.28;100.00
7022;BME280;3552;42.664;23.406;2022-08-07T06:27:48;45501.28;;;-141.28;100.00
7022;BME280;3552;42.664;23.406;2022-08-07T06:30:14;45469.94;;;-141.28;100.00
7022;BME280;3552;42.664;23.406;2022-08-07T06:32:42;45458.19;;;-141.28;100.00
7022;BME280;3552;42.664;23.406;2022-08-07T06:35:13;45477.78;;;-141.28;100.00
7022;BME280;3552;42.664;23.406;2022-08-07T06:37:40;45491.50;;;-141.28;100.00
7022;BME280;3552;42.664;23.406;2022-08-07T06:40:10;45509.13;;;-141.28;100.00
7022;BME280;3552;42.664;23.406;2022-08-07T06:42:38;45558.13;;;-141.28;100.00
7022;BME280;3552;42.664;23.406;2022-08-07T06:45:11;45536.56;;;-141.28;100.00
7022;BME280;3552;42.664;23.406;2022-08-07T06:47:39;45536.56;;;-141.28;100.00
7022;BME280;3552;42.664;23.406;2022-08-07T06:50:07;45552.25;;;-141.28;100.00
7022;BME280;3552;42.664;23.406;2022-08-07T06:52:37;45550.28;;;-141.28;100.00
7022;BME280;3552;42.664;23.406;2022-08-07T06:55:10;45560.09;;;-141.28;100.00
7022;BME280;3552;42.664;23.406;2022-08-07T06:57:40;45548.34;;;-141.28;100.00
7022;BME280;3552;42.664;23.406;2022-08-07T07:00:09;45516.97;;;-141.28;100.00
7022;BME280;3552;42.664;23.406;2022-08-07T07:02:36;45544.41;;;-141.28;100.00
7022;BME280;3552;42.664;23.406;2022-08-07T07:05:06;45573.81;;;-141.28;100.00
7022;BME280;3552;42.664;23.406;2022-08-07T07:07:33;45567.94;;;-141.28;100.00
7022;BME280;3552;42.664;23.406;2022-08-07T07:10:04;45569.91;;;-141.28;100.00
7022;BME280;3552;42.664;23.406;2022-08-07T07:12:37;45565.97;;;-141.28;100.00
7022;BME280;3552;42.664;23.406;2022-08-07T07:15:10;45585.56;;;-141.28;100.00
7022;BME280;3552;42.664;23.406;2022-08-07T07:17:44;45579.69;;;-141.28;100.00
7022;BME280;3552;42.664;23.406;2022-08-07T07:20:15;45599.28;;;-141.28;100.00
7022;BME280;3552;42.664;23.406;2022-08-07T07:22:44;45601.25;;;-141.28;100.00
7022;BME280;3552;42.664;23.406;2022-08-07T07:25:15;45618.91;;;-141.28;100.00
7022;BME280;3552;42.664;23.406;2022-08-07T07:27:49;45601.25;;;-141.28;100.00
7022;BME280;3552;42.664;23.406;2022-08-07T07:30:21;45662.00;;;-141.28;100.00
7022;BME280;3552;42.664;23.406;2022-08-07T07:32:51;45695.34;;;-141.28;100.00
7022;BME280;3552;42.664;23.406;2022-08-07T07:35:21;45712.97;;;-141.28;100.00
7022;BME280;3552;42.664;23.406;2022-08-07T07:37:50;45720.81;;;-141.28;100.00
7022;BME280;3552;42.664;23.406;2022-08-07T07:40:21;45756.09;;;-141.28;100.00
7022;BME280;3552;42.664;23.406;2022-08-07T07:42:51;45842.34;;;-141.28;100.00
7022;BME280;3552;42.664;23.406;2022-08-07T07:45:25;45881.56;;;-141.28;100.00
7022;BME280;3552;42.664;23.406;2022-08-07T07:47:54;45928.59;;;-141.28;100.00
7022;BME280;3552;42.664;23.406;2022-08-07T07:50:24;45967.81;;;-141.28;100.00
7022;BME280;3552;42.664;23.406;2022-08-07T07:52:54;45967.81;;;-141.28;100.00
7022;BME280;3552;42.664;23.406;2022-08-07T07:55:24;46050.13;;;-141.28;100.00
7022;BME280;3552;42.664;23.406;2022-08-07T07:57:53;46152.06;;;-141.28;100.00
7022;BME280;3552;42.664;23.406;2022-08-07T08:00:26;46179.50;;;-141.28;100.00
7022;BME280;3552;42.664;23.406;2022-08-07T08:03:05;46152.06;;;-141.28;100.00
7022;BME280;3552;42.664;23.406;2022-08-07T08:05:35;46081.50;;;-141.28;100.00
7022;BME280;3552;42.664;23.406;2022-08-07T08:08:04;46057.97;;;-141.28;100.00
7022;BME280;3552;42.664;23.406;2022-08-07T08:10:34;46091.31;;;-141.28;100.00
7022;BME280;3552;42.664;23.406;2022-08-07T08:13:01;46208.91;;;-141.28;100.00
7022;BME280;3552;42.664;23.406;2022-08-07T08:15:35;46252.06;;;-141.28;100.00
7022;BME280;3552;42.664;23.406;2022-08-07T08:18:07;46357.91;;;-141.28;100.00
7022;BME280;3552;42.664;23.406;2022-08-07T08:20:36;46257.94;;;-141.28;100.00
7022;BME280;3552;42.664;23.406;2022-08-07T08:23:05;46218.72;;;-141.28;100.00
7022;BME280;3552;42.664;23.406;2022-08-07T08:25:54;46281.44;;;-141.28;100.00
7022;BME280;3552;42.664;23.406;2022-08-07T08:28:49;46381.44;;;-141.28;100.00
7022;BME280;3552;42.664;23.406;2022-08-07T08:31:21;46326.53;;;-141.28;100.00
7022;BME280;3552;42.664;23.406;2022-08-07T08:33:51;46428.50;;;-141.28;100.00
7022;BME280;3552;42.664;23.406;2022-08-07T08:36:22;46481.44;;;-141.28;100.00
7022;BME280;3552;42.664;23.406;2022-08-07T08:38:50;46540.25;;;-141.28;100.00
7022;BME280;3552;42.664;23.406;2022-08-07T08:41:28;46595.13;;;-141.28;100.00
7022;BME280;3552;42.664;23.406;2022-08-07T08:44:03;46608.88;;;-141.28;100.00
7022;BME280;3552;42.664;23.406;2022-08-07T08:46:40;46642.19;;;-141.28;100.00
7022;BME280;3552;42.664;23.406;2022-08-07T08:49:15;46732.38;;;-141.28;100.00
7022;BME280;3552;42.664;23.406;2022-08-07T08:51:51;46734.34;;;-141.28;100.00
7022;BME280;3552;42.664;23.406;2022-08-07T08:54:27;46685.31;;;-141.28;100.00
7022;BME280;3552;42.664;23.406;2022-08-07T08:57:02;46736.31;;;-141.28;100.00
7022;BME280;3552;42.664;23.406;2022-08-07T08:59:38;46771.59;;;-141.28;100.00
7022;BME280;3552;42.664;23.406;2022-08-07T09:02:16;46834.34;;;-141.28;100.00
7022;BME280;3552;42.664;23.406;2022-08-07T09:04:54;46936.31;;;-141.28;100.00
7022;BME280;3552;42.664;23.406;2022-08-07T09:07:31;46936.31;;;-141.28;100.00
7022;BME280;3552;42.664;23.406;2022-08-07T09:10:16;46936.31;;;-141.28;100.00
7022;BME280;3552;42.664;23.406;2022-08-07T09:12:55;47046.09;;;-141.28;100.00
7022;BME280;3552;42.664;23.406;2022-08-07T09:15:37;47112.78;;;-141.28;100.00
7022;BME280;3552;42.664;23.406;2022-08-07T09:18:28;47052.00;;;-141.28;100.00
7022;BME280;3552;42.664;23.406;2022-08-07T09:21:09;47097.09;;;-141.28;100.00
7022;BME280;3552;42.664;23.406;2022-08-07T09:23:47;47187.28;;;-141.28;100.00
7022;BME280;3552;42.664;23.406;2022-08-07T09:26:30;47250.03;;;-141.28;100.00
7022;BME280;3552;42.664;23.406;2022-08-07T09:29:12;47336.34;;;-141.28;100.00
7022;BME280;3552;42.664;23.406;2022-08-07T09:31:55;47473.59;;;-141.28;100.00
7022;BME280;3552;42.664;23.406;2022-08-07T09:34:28;47548.13;;;-141.28;100.00
7022;BME280;3552;42.664;23.406;2022-08-07T09:37:02;47885.47;;;-141.28;100.00
7022;BME280;3552;42.664;23.406;2022-08-07T09:39:44;48116.91;;;-141.28;100.00
7022;BME280;3552;42.664;23.406;2022-08-07T09:42:21;48136.53;;;-141.28;100.00
7022;BME280;3552;42.664;23.406;2022-08-07T09:45:03;48267.97;;;-141.28;100.00
7022;BME280;3552;42.664;23.406;2022-08-07T09:47:41;48568.09;;;-141.28;100.00
7022;BME280;3552;42.664;23.406;2022-08-07T09:50:17;49093.88;;;-141.28;100.00
7022;BME280;3552;42.664;23.406;2022-08-07T09:52:52;49042.88;;;-141.28;100.00
7022;BME280;3552;42.664;23.406;2022-08-07T09:55:30;48954.59;;;-141.28;100.00
7022;BME280;3552;42.664;23.406;2022-08-07T09:58:18;48960.47;;;-141.28;100.00
7022;BME280;3552;42.664;23.406;2022-08-07T10:01:07;49066.41;;;-141.28;100.00
7022;BME280;3552;42.664;23.406;2022-08-07T10:04:17;49033.06;;;-141.28;100.00
7022;BME280;3552;42.664;23.406;2022-08-07T10:07:04;49382.31;;;-141.28;100.00
7022;BME280;3552;42.664;23.406;2022-08-07T10:09:49;49019.31;;;-141.28;100.00
7022;BME280;3552;42.664;23.406;2022-08-07T10:12:40;48893.75;;;-141.28;100.00
7022;BME280;3552;42.664;23.406;2022-08-07T10:15:34;48936.91;;;-141.28;100.00
7022;BME280;3552;42.664;23.406;2022-08-07T10:18:23;48870.22;;;-141.28;100.00
7022;BME280;3552;42.664;23.406;2022-08-07T10:21:07;48827.06;;;-141.28;100.00
7022;BME280;3552;42.664;23.406;2022-08-07T10:23:51;48750.53;;;-141.28;100.00
7022;BME280;3552;42.664;23.406;2022-08-07T10:26:42;48805.47;;;-141.28;100.00
7022;BME280;3552;42.664;23.406;2022-08-07T10:29:25;48885.91;;;-141.28;100.00
7022;BME280;3552;42.664;23.406;2022-08-07T10:32:19;48976.16;;;-141.28;100.00
7022;BME280;3552;42.664;23.406;2022-08-07T10:35:02;48991.84;;;-141.28;100.00
7022;BME280;3552;42.664;23.406;2022-08-07T10:37:40;49091.91;;;-141.28;100.00
7022;BME280;3552;42.664;23.406;2022-08-07T10:40:15;49115.47;;;-141.28;100.00
7022;BME280;3552;42.664;23.406;2022-08-07T10:42:56;48999.72;;;-141.28;100.00
7022;BME280;3552;42.664;23.406;2022-08-07T10:45:26;49015.41;;;-141.28;100.00
7022;BME280;3552;42.664;23.406;2022-08-07T10:48:06;49062.50;;;-141.28;100.00
7022;BME280;3552;42.664;23.406;2022-08-07T10:50:44;49144.91;;;-141.28;100.00
7022;BME280;3552;42.664;23.406;2022-08-07T10:53:19;49115.47;;;-141.28;100.00
7022;BME280;3552;42.664;23.406;2022-08-07T10:55:50;48964.38;;;-141.28;100.00
7022;BME280;3552;42.664;23.406;2022-08-07T10:58:44;49125.28;;;-141.28;100.00
7022;BME280;3552;42.664;23.406;2022-08-07T11:01:27;49074.25;;;-141.28;100.00
7022;BME280;3552;42.664;23.406;2022-08-07T11:04:00;49093.88;;;-141.28;100.00
7022;BME280;3552;42.664;23.406;2022-08-07T11:06:39;48611.25;;;-141.28;100.00
7022;BME280;3552;42.664;23.406;2022-08-07T11:09:11;48438.63;;;-141.28;100.00
7022;BME280;3552;42.664;23.406;2022-08-07T11:11:44;48297.38;;;-141.28;100.00
7022;BME280;3552;42.664;23.406;2022-08-07T11:14:18;48136.53;;;-141.28;100.00
7022;BME280;3552;42.664;23.406;2022-08-07T11:16:51;48215.00;;;-141.28;100.00
7022;BME280;3552;42.664;23.406;2022-08-07T11:19:29;48391.53;;;-141.28;100.00
7022;BME280;3552;42.664;23.406;2022-08-07T11:22:07;48911.41;;;-141.28;100.00
7022;BME280;3552;42.664;23.406;2022-08-07T11:24:40;49050.72;;;-141.28;100.00
7022;BME280;3552;42.664;23.406;2022-08-07T11:27:18;49101.72;;;-141.28;100.00
7022;BME280;3552;42.664;23.406;2022-08-07T11:29:51;48999.72;;;-141.28;100.00
7022;BME280;3552;42.664;23.406;2022-08-07T11:32:29;48658.34;;;-141.28;100.00
7022;BME280;3552;42.664;23.406;2022-08-07T11:35:02;48593.59;;;-141.28;100.00
7022;BME280;3552;42.664;23.406;2022-08-07T11:37:56;48703.47;;;-141.28;100.00
7022;BME280;3552;42.664;23.406;2022-08-07T11:40:40;48795.66;;;-141.28;100.00
7022;BME280;3552;42.664;23.406;2022-08-07T11:43:16;48681.88;;;-141.28;100.00
7022;BME280;3552;42.664;23.406;2022-08-07T11:45:58;48795.66;;;-141.28;100.00
7022;BME280;3552;42.664;23.406;2022-08-07T11:48:53;48579.88;;;-141.28;100.00
7022;BME280;3552;42.664;23.406;2022-08-07T11:51:32;48324.84;;;-141.28;100.00
7022;BME280;3552;42.664;23.406;2022-08-07T11:54:29;48234.59;;;-141.28;100.00
7022;BME280;3552;42.664;23.406;2022-08-07T11:57:11;48077.69;;;-141.28;100.00
7022;BME280;3552;42.664;23.406;2022-08-07T12:00:08;48056.13;;;-141.28;100.00
7022;BME280;3552;42.664;23.406;2022-08-07T12:05:44;48140.47;;;-141.28;100.00
7022;BME280;3552;42.664;23.406;2022-08-07T12:08:19;48116.91;;;-141.28;100.00
7022;BME280;3552;42.664;23.406;2022-08-07T12:10:55;48246.38;;;-141.28;100.00
7022;BME280;3552;42.664;23.406;2022-08-07T12:13:26;48207.16;;;-141.28;100.00
7022;BME280;3552;42.664;23.406;2022-08-07T12:15:58;48199.31;;;-141.28;100.00
7022;BME280;3552;42.664;23.406;2022-08-07T12:18:34;48254.22;;;-141.28;100.00
7022;BME280;3552;42.664;23.406;2022-08-07T12:21:15;48415.06;;;-141.28;100.00
7022;BME280;3552;42.664;23.406;2022-08-07T12:23:51;48462.16;;;-141.28;100.00
7022;BME280;3552;42.664;23.406;2022-08-07T12:26:28;48405.28;;;-141.28;100.00
7022;BME280;3552;42.664;23.406;2022-08-07T12:29:05;48320.91;;;-141.28;100.00
7022;BME280;3552;42.664;23.406;2022-08-07T12:31:38;48305.22;;;-141.28;100.00
7022;BME280;3552;42.664;23.406;2022-08-07T12:34:10;48336.63;;;-141.28;100.00
7022;BME280;3552;42.664;23.406;2022-08-07T12:36:39;48275.81;;;-141.28;100.00
7022;BME280;3552;42.664;23.406;2022-08-07T12:39:10;48215.00;;;-141.28;100.00
7022;BME280;3552;42.664;23.406;2022-08-07T12:41:40;48313.06;;;-141.28;100.00
7022;BME280;3552;42.664;23.406;2022-08-07T12:44:09;48375.84;;;-141.28;100.00
7022;BME280;3552;42.664;23.406;2022-08-07T12:46:48;48428.81;;;-141.28;100.00
7022;BME280;3552;42.664;23.406;2022-08-07T12:49:25;48685.81;;;-141.28;100.00
7022;BME280;3552;42.664;23.406;2022-08-07T12:52:03;48878.06;;;-141.28;100.00
7022;BME280;3552;42.664;23.406;2022-08-07T12:54:35;49009.50;;;-141.28;100.00
7022;BME280;3552;42.664;23.406;2022-08-07T12:57:08;48997.75;;;-141.28;100.00
7022;BME280;3552;42.664;23.406;2022-08-07T12:59:36;49027.19;;;-141.28;100.00
7022;BME280;3552;42.664;23.406;2022-08-07T13:02:16;48929.06;;;-141.28;100.00
7022;BME280;3552;42.664;23.406;2022-08-07T13:05:02;48870.22;;;-141.28;100.00
7022;BME280;3552;42.664;23.406;2022-08-07T13:08:01;48925.16;;;-141.28;100.00
7022;BME280;3552;42.664;23.406;2022-08-07T13:10:40;49015.41;;;-141.28;100.00
7022;BME280;3552;42.664;23.406;2022-08-07T13:13:28;49027.19;;;-141.28;100.00